Time;durP1;ratioP1;P1;durP2;ratioP2;P2;SDS_P1;SDS_P2;PMS_P1;PMS_P2;Temp;Humidity;BMP_temperature;BMP_pressure;BME280_temperature;BME280_humidity;BME280_pressure;Samples;Min_cycle;Max_cycle;Signal;HPM_P1;HPM_P2
2023/08/10 00:01:19;;;;;;;2.35;1.65;;;16.60;75.70;;;;;;5051308;28;20075;-71
2023/08/10 00:03:45;;;;;;;2.60;1.30;;;16.60;75.80;;;;;;5055415;28;20606;-71
2023/08/10 00:06:11;;;;;;;3.67;1.30;;;16.60;75.80;;;;;;5057893;28;20098;-72
2023/08/10 00:08:37;;;;;;;3.13;1.33;;;16.50;76.00;;;;;;5057038;28;20029;-70
2023/08/10 00:11:04;;;;;;;2.72;1.30;;;16.50;76.30;;;;;;5058061;28;20036;-70
2023/08/10 00:13:30;;;;;;;2.45;1.25;;;16.50;76.40;;;;;;5058620;28;20032;-70
2023/08/10 00:15:55;;;;;;;3.05;1.40;;;16.50;76.50;;;;;;5055572;28;20021;-70
2023/08/10 00:18:21;;;;;;;2.70;1.42;;;16.60;76.40;;;;;;5062893;28;20491;-70
2023/08/10 00:20:47;;;;;;;5.13;1.50;;;16.60;76.40;;;;;;5060776;28;20045;-69
2023/08/10 00:23:13;;;;;;;6.25;1.50;;;16.60;76.50;;;;;;5069254;28;20135;-70
2023/08/10 00:25:38;;;;;;;1.88;1.30;;;16.50;76.50;;;;;;5069737;28;20116;-70
2023/08/10 00:28:04;;;;;;;3.15;1.90;;;16.50;76.50;;;;;;5053687;28;20025;-70
2023/08/10 00:30:30;;;;;;;3.95;1.60;;;16.50;76.50;;;;;;5051797;28;20028;-71
2023/08/10 00:32:56;;;;;;;3.72;1.58;;;16.50;77.10;;;;;;5066100;28;20044;-71
2023/08/10 00:35:23;;;;;;;3.80;1.67;;;16.50;76.30;;;;;;5053975;28;20097;-70
2023/08/10 00:37:49;;;;;;;4.43;1.60;;;16.60;76.40;;;;;;5066105;28;20119;-70
2023/08/10 00:40:15;;;;;;;3.90;1.70;;;16.50;76.20;;;;;;5054090;28;20108;-70
2023/08/10 00:42:41;;;;;;;3.95;1.90;;;16.60;76.30;;;;;;5060669;28;20029;-70
2023/08/10 00:45:08;;;;;;;2.30;1.60;;;16.50;76.20;;;;;;5059368;28;20085;-71
2023/08/10 00:47:33;;;;;;;3.08;1.80;;;16.50;76.20;;;;;;5064804;28;20021;-70
2023/08/10 00:50:00;;;;;;;2.45;1.70;;;16.50;76.20;;;;;;5053483;28;20387;-70
2023/08/10 00:52:25;;;;;;;2.70;1.70;;;16.50;76.20;;;;;;5055312;28;20028;-70
2023/08/10 00:54:51;;;;;;;3.25;1.55;;;16.50;76.10;;;;;;5053205;28;20021;-70
2023/08/10 00:57:17;;;;;;;6.25;1.80;;;16.60;76.10;;;;;;5064801;28;20060;-70
2023/08/10 00:59:43;;;;;;;4.78;1.60;;;16.50;76.10;;;;;;5067883;28;20031;-70
2023/08/10 01:02:09;;;;;;;2.33;1.50;;;16.50;76.20;;;;;;5070822;28;20066;-70
2023/08/10 01:04:35;;;;;;;2.75;1.30;;;16.50;76.20;;;;;;5058890;28;20071;-70
2023/08/10 01:07:26;;;;;;;3.22;1.40;;;16.50;76.20;;;;;;5054421;28;20026;-70
2023/08/10 01:10:22;;;;;;;3.88;1.50;;;16.50;76.10;;;;;;5052393;28;20499;-70
2023/08/10 01:13:06;;;;;;;2.67;1.40;;;16.60;76.00;;;;;;5067054;28;20032;-70
2023/08/10 01:15:49;;;;;;;2.30;1.20;;;16.50;75.90;;;;;;5072944;28;20032;-70
2023/08/10 01:18:18;;;;;;;2.13;1.30;;;16.50;76.20;;;;;;5072350;28;20028;-71
2023/08/10 01:20:47;;;;;;;3.28;1.50;;;16.50;76.20;;;;;;5059173;28;20093;-71
2023/08/10 01:23:23;;;;;;;4.30;1.30;;;16.50;76.10;;;;;;5072311;28;20100;-71
2023/08/10 01:25:51;;;;;;;4.68;1.40;;;16.50;76.10;;;;;;5072803;28;20476;-71
2023/08/10 01:28:17;;;;;;;2.95;1.55;;;16.60;76.10;;;;;;5072386;28;20089;-70
2023/08/10 01:30:44;;;;;;;2.45;1.23;;;16.60;76.10;;;;;;5054215;28;20036;-70
2023/08/10 01:33:10;;;;;;;4.15;1.33;;;16.60;76.80;;;;;;5052997;28;20043;-70
2023/08/10 01:35:37;;;;;;;2.83;1.30;;;16.50;76.20;;;;;;5069126;28;20025;-71
2023/08/10 01:38:05;;;;;;;2.47;1.30;;;16.60;76.30;;;;;;5072610;28;20029;-71
2023/08/10 01:40:32;;;;;;;3.28;1.10;;;16.60;76.30;;;;;;5069670;28;20032;-71
2023/08/10 01:42:57;;;;;;;2.72;1.20;;;16.70;76.10;;;;;;5071256;28;20017;-70
2023/08/10 01:45:23;;;;;;;2.35;1.20;;;16.70;76.00;;;;;;5071688;28;20074;-70
2023/08/10 01:47:52;;;;;;;4.43;1.50;;;16.70;76.00;;;;;;5072447;28;20095;-70
2023/08/10 01:50:20;;;;;;;3.35;1.60;;;16.70;75.90;;;;;;5066578;28;20028;-70
2023/08/10 01:53:02;;;;;;;2.72;1.13;;;16.70;76.00;;;;;;5071964;28;20044;-70
2023/08/10 01:55:28;;;;;;;3.28;1.33;;;16.70;76.30;;;;;;5071442;28;20100;-70
2023/08/10 01:57:54;;;;;;;2.50;1.10;;;16.70;76.30;;;;;;5070089;28;20636;-71
2023/08/10 02:00:20;;;;;;;2.38;1.17;;;16.60;76.30;;;;;;5071826;28;20028;-70
2023/08/10 02:02:46;;;;;;;3.35;1.23;;;16.60;76.30;;;;;;5056198;28;20025;-71
2023/08/10 02:05:14;;;;;;;3.38;1.40;;;16.60;76.30;;;;;;5057347;28;20028;-70
2023/08/10 02:07:41;;;;;;;3.33;1.50;;;16.60;76.30;;;;;;5051974;28;20480;-70
2023/08/10 02:10:09;;;;;;;1.38;1.00;;;16.60;76.20;;;;;;5059652;28;20060;-70
2023/08/10 02:12:35;;;;;;;3.40;1.20;;;16.60;76.40;;;;;;5058122;28;20025;-70
2023/08/10 02:15:01;;;;;;;3.33;1.38;;;16.50;76.70;;;;;;5058059;28;20024;-70
2023/08/10 02:17:29;;;;;;;2.63;1.27;;;16.50;77.00;;;;;;5069388;28;20081;-70
2023/08/10 02:19:55;;;;;;;2.38;1.30;;;16.50;77.10;;;;;;5065905;28;20060;-70
2023/08/10 02:22:22;;;;;;;1.55;1.10;;;16.50;77.30;;;;;;5063240;28;20109;-70
2023/08/10 02:24:47;;;;;;;2.33;1.13;;;16.50;77.30;;;;;;5068138;28;20391;-70
2023/08/10 02:27:13;;;;;;;1.58;1.15;;;16.50;77.40;;;;;;5051688;28;20085;-70
2023/08/10 02:29:39;;;;;;;1.38;1.20;;;16.40;77.50;;;;;;5053379;28;20035;-70
2023/08/10 02:32:04;;;;;;;2.92;1.10;;;16.40;77.80;;;;;;5062529;28;20033;-70
2023/08/10 02:34:30;;;;;;;2.30;1.23;;;16.30;77.80;;;;;;5051830;28;20060;-70
2023/08/10 02:36:55;;;;;;;2.55;1.20;;;16.30;77.80;;;;;;5071203;28;20028;-70
2023/08/10 02:39:21;;;;;;;3.03;1.25;;;16.30;77.90;;;;;;5071468;28;20031;-70
2023/08/10 02:41:46;;;;;;;2.60;1.17;;;16.30;77.90;;;;;;5058984;28;20035;-70
2023/08/10 02:44:12;;;;;;;3.83;1.40;;;16.30;78.10;;;;;;5071342;28;20438;-70
2023/08/10 02:46:38;;;;;;;6.97;1.50;;;16.20;78.20;;;;;;5070597;28;20357;-71
2023/08/10 02:49:03;;;;;;;1.95;1.20;;;16.20;78.30;;;;;;5071442;28;20635;-71
2023/08/10 02:51:29;;;;;;;3.72;1.25;;;16.20;78.30;;;;;;5068235;28;20024;-70
2023/08/10 02:53:55;;;;;;;2.22;1.20;;;16.20;78.30;;;;;;5071009;28;20028;-70
2023/08/10 02:56:20;;;;;;;2.88;1.40;;;16.20;78.30;;;;;;5070670;28;20021;-70
2023/08/10 02:58:46;;;;;;;3.25;1.40;;;16.20;78.40;;;;;;5070970;28;20024;-70
2023/08/10 03:01:11;;;;;;;2.55;1.40;;;16.20;78.40;;;;;;5061556;28;20043;-71
2023/08/10 03:03:37;;;;;;;2.25;1.25;;;16.20;78.40;;;;;;5051924;28;20529;-71
2023/08/10 03:06:03;;;;;;;2.88;1.38;;;16.10;78.30;;;;;;5059389;28;20043;-71
2023/08/10 03:08:28;;;;;;;1.50;1.17;;;16.20;78.40;;;;;;5067906;28;20032;-71
2023/08/10 03:10:54;;;;;;;2.72;1.13;;;16.10;78.40;;;;;;5063971;28;20033;-71
2023/08/10 03:13:20;;;;;;;3.15;1.55;;;16.20;78.40;;;;;;5050934;28;20029;-71
2023/08/10 03:15:45;;;;;;;2.97;1.27;;;16.20;78.40;;;;;;5063609;28;20032;-72
2023/08/10 03:18:11;;;;;;;3.17;1.30;;;16.10;78.50;;;;;;5070716;28;20028;-71
2023/08/10 03:20:36;;;;;;;3.30;1.30;;;16.10;78.50;;;;;;5070104;28;20040;-71
2023/08/10 03:23:02;;;;;;;1.88;1.20;;;16.10;78.60;;;;;;5071004;28;20062;-71
2023/08/10 03:25:28;;;;;;;2.53;1.30;;;16.10;78.70;;;;;;5061147;28;20523;-71
2023/08/10 03:27:53;;;;;;;3.58;1.23;;;16.20;78.80;;;;;;5070614;28;20028;-71
2023/08/10 03:30:19;;;;;;;2.50;1.17;;;16.20;78.70;;;;;;5070559;28;20025;-71
2023/08/10 03:32:46;;;;;;;1.42;1.08;;;16.20;78.70;;;;;;5051333;28;20048;-71
2023/08/10 03:35:11;;;;;;;1.30;1.15;;;16.20;78.70;;;;;;5057979;28;20030;-71
2023/08/10 03:37:37;;;;;;;2.13;1.30;;;16.20;78.80;;;;;;5053380;28;20590;-71
2023/08/10 03:40:03;;;;;;;1.73;1.30;;;16.20;78.80;;;;;;5057467;28;20036;-71
2023/08/10 03:42:29;;;;;;;2.17;1.30;;;16.20;78.80;;;;;;5054905;28;20068;-71
2023/08/10 03:44:55;;;;;;;1.73;1.23;;;16.20;78.80;;;;;;5055284;28;20414;-71
2023/08/10 03:47:21;;;;;;;2.30;1.25;;;16.20;78.80;;;;;;5056448;28;20021;-71
2023/08/10 03:49:47;;;;;;;2.75;1.10;;;16.20;78.80;;;;;;5050606;28;20419;-71
2023/08/10 03:52:13;;;;;;;1.88;1.13;;;16.20;78.90;;;;;;5061595;28;20029;-71
2023/08/10 03:54:38;;;;;;;2.17;1.20;;;16.20;79.50;;;;;;5067225;28;20033;-71
2023/08/10 03:57:04;;;;;;;2.38;1.33;;;16.20;79.00;;;;;;5059284;28;20028;-71
2023/08/10 03:59:30;;;;;;;1.60;1.00;;;16.20;79.00;;;;;;5069619;28;20108;-71
2023/08/10 04:01:55;;;;;;;1.80;1.20;;;16.20;79.00;;;;;;5068618;28;20051;-71
2023/08/10 04:04:21;;;;;;;2.90;1.27;;;16.20;79.00;;;;;;5068028;28;20024;-71
2023/08/10 04:06:46;;;;;;;2.25;1.30;;;16.20;79.00;;;;;;5064003;28;20032;-71
2023/08/10 04:09:12;;;;;;;1.40;1.15;;;16.30;79.00;;;;;;5050479;28;20391;-71
2023/08/10 04:11:38;;;;;;;2.80;1.35;;;16.30;78.90;;;;;;5054392;28;20556;-71
2023/08/10 04:14:04;;;;;;;1.92;1.10;;;16.20;79.00;;;;;;5070257;28;20031;-71
2023/08/10 04:16:29;;;;;;;2.67;1.20;;;16.20;79.10;;;;;;5065477;28;20017;-71
2023/08/10 04:18:55;;;;;;;2.42;1.20;;;16.20;79.10;;;;;;5070098;28;20055;-71
2023/08/10 04:21:21;;;;;;;1.98;1.40;;;16.20;79.10;;;;;;5064407;28;20053;-72
2023/08/10 04:23:46;;;;;;;2.83;1.27;;;16.20;79.10;;;;;;5069819;28;20024;-71
2023/08/10 04:26:12;;;;;;;1.83;1.30;;;16.20;79.10;;;;;;5069883;28;20712;-71
2023/08/10 04:28:37;;;;;;;2.22;1.50;;;16.30;79.20;;;;;;5051624;28;20581;-71
2023/08/10 04:31:03;;;;;;;3.03;1.42;;;16.30;79.20;;;;;;5054129;28;20025;-71
2023/08/10 04:33:29;;;;;;;3.78;1.35;;;16.30;79.20;;;;;;5053598;28;20214;-71
2023/08/10 04:35:55;;;;;;;3.20;1.67;;;16.30;79.20;;;;;;5049773;28;20033;-71
2023/08/10 04:38:21;;;;;;;3.38;1.70;;;16.30;79.40;;;;;;5063944;28;20021;-71
2023/08/10 04:40:47;;;;;;;2.75;1.60;;;16.20;79.60;;;;;;5067731;28;20021;-71
2023/08/10 04:43:13;;;;;;;3.45;2.08;;;16.20;79.70;;;;;;5064262;28;20032;-71
2023/08/10 04:45:38;;;;;;;1.88;1.60;;;16.20;79.80;;;;;;5070010;28;20039;-71
2023/08/10 04:48:04;;;;;;;3.25;1.98;;;16.20;79.90;;;;;;5059282;28;20392;-71
2023/08/10 04:50:31;;;;;;;4.93;2.17;;;16.30;80.00;;;;;;5050039;28;20403;-71
2023/08/10 04:52:57;;;;;;;3.95;2.03;;;16.20;80.10;;;;;;5060950;28;20032;-71
2023/08/10 04:55:22;;;;;;;2.55;1.98;;;16.30;80.20;;;;;;5049764;28;20029;-71
2023/08/10 04:57:48;;;;;;;2.60;1.70;;;16.30;80.20;;;;;;5055933;28;20028;-71
2023/08/10 05:00:14;;;;;;;3.58;1.83;;;16.30;80.10;;;;;;5069646;28;20036;-71
2023/08/10 05:02:40;;;;;;;3.38;1.92;;;16.40;80.10;;;;;;5056333;28;20099;-71
2023/08/10 05:05:06;;;;;;;2.88;1.88;;;16.50;79.90;;;;;;5069513;28;20020;-71
2023/08/10 05:07:33;;;;;;;4.28;2.33;;;16.50;79.80;;;;;;5067243;28;20021;-71
2023/08/10 05:10:03;;;;;;;3.28;2.47;;;16.50;80.00;;;;;;5050904;28;20032;-71
2023/08/10 05:12:28;;;;;;;4.32;2.58;;;16.50;80.00;;;;;;5050930;28;20487;-71
2023/08/10 05:14:54;;;;;;;5.03;2.55;;;16.60;80.10;;;;;;5067680;28;20040;-71
2023/08/10 05:17:19;;;;;;;3.20;2.58;;;16.70;80.10;;;;;;5067740;28;20033;-71
2023/08/10 05:19:45;;;;;;;6.65;2.50;;;16.70;80.00;;;;;;5072255;28;20032;-71
2023/08/10 05:22:11;;;;;;;4.55;2.50;;;16.70;79.90;;;;;;5072926;28;20044;-71
2023/08/10 05:24:37;;;;;;;6.40;3.30;;;16.80;79.60;;;;;;5053619;28;20075;-71
2023/08/10 05:27:02;;;;;;;5.18;3.63;;;16.80;79.50;;;;;;5054257;28;20025;-71
2023/08/10 05:29:28;;;;;;;5.68;2.60;;;16.80;79.60;;;;;;5056638;28;20036;-72
2023/08/10 05:31:54;;;;;;;4.03;2.55;;;16.90;79.90;;;;;;5052744;28;20029;-72
2023/08/10 05:34:20;;;;;;;3.92;2.40;;;17.90;78.70;;;;;;5064767;28;20392;-72
2023/08/10 05:36:45;;;;;;;4.55;2.30;;;19.00;75.80;;;;;;5063407;28;20074;-71
2023/08/10 05:39:11;;;;;;;4.60;2.47;;;19.90;72.80;;;;;;5061839;28;20612;-71
2023/08/10 05:41:36;;;;;;;3.50;2.20;;;20.70;70.00;;;;;;5071661;28;20134;-73
2023/08/10 05:44:02;;;;;;;3.22;2.10;;;21.30;67.40;;;;;;5061071;28;20025;-71
2023/08/10 05:46:28;;;;;;;5.32;2.38;;;21.90;65.20;;;;;;5053781;28;20447;-72
2023/08/10 05:48:53;;;;;;;5.50;2.47;;;22.40;63.60;;;;;;5055566;28;20395;-72
2023/08/10 05:51:19;;;;;;;4.15;2.17;;;23.00;61.80;;;;;;5056471;28;20033;-71
2023/08/10 05:53:45;;;;;;;3.17;1.80;;;23.30;59.90;;;;;;5060519;28;20029;-71
2023/08/10 05:56:10;;;;;;;5.05;2.00;;;23.60;59.50;;;;;;5060564;28;20090;-71
2023/08/10 05:58:36;;;;;;;4.70;1.83;;;23.90;57.90;;;;;;5060256;28;20629;-71
2023/08/10 06:01:03;;;;;;;4.03;1.90;;;24.20;57.70;;;;;;5060384;28;20029;-71
2023/08/10 06:03:29;;;;;;;3.22;1.90;;;24.70;57.10;;;;;;5061926;28;20028;-71
2023/08/10 06:05:54;;;;;;;3.65;1.65;;;25.10;55.90;;;;;;5058458;28;20017;-71
2023/08/10 06:08:20;;;;;;;3.75;2.08;;;25.40;55.40;;;;;;5053082;28;20021;-71
2023/08/10 06:10:49;;;;;;;4.18;1.95;;;25.30;54.30;;;;;;5062010;28;20107;-71
2023/08/10 06:13:15;;;;;;;2.80;1.50;;;24.80;55.20;;;;;;5071784;28;20020;-71
2023/08/10 06:15:41;;;;;;;5.03;2.10;;;24.70;56.20;;;;;;5053264;28;20029;-71
2023/08/10 06:18:06;;;;;;;4.70;2.63;;;25.20;55.20;;;;;;5051656;28;20058;-71
2023/08/10 06:20:33;;;;;;;4.68;2.30;;;25.40;54.00;;;;;;5060853;28;20029;-71
2023/08/10 06:22:59;;;;;;;3.47;1.90;;;25.60;53.80;;;;;;5056327;28;20021;-71
2023/08/10 06:25:24;;;;;;;4.00;1.98;;;26.30;53.40;;;;;;5060624;28;20027;-72
2023/08/10 06:27:50;;;;;;;3.58;2.10;;;27.00;52.60;;;;;;5059660;28;20387;-71
2023/08/10 06:30:16;;;;;;;3.25;1.90;;;27.50;51.60;;;;;;5060589;28;20162;-72
2023/08/10 06:32:42;;;;;;;3.67;2.30;;;27.80;51.10;;;;;;5058629;28;20036;-72
2023/08/10 06:35:09;;;;;;;2.83;2.00;;;27.80;50.30;;;;;;5061100;28;20479;-72
2023/08/10 06:37:35;;;;;;;4.65;2.15;;;28.10;50.30;;;;;;5056406;28;20040;-72
2023/08/10 06:40:01;;;;;;;5.38;2.40;;;28.30;49.30;;;;;;5060015;28;20500;-72
2023/08/10 06:42:26;;;;;;;4.18;1.80;;;28.40;49.00;;;;;;5060748;28;20036;-72
2023/08/10 06:44:53;;;;;;;5.05;2.30;;;28.40;49.30;;;;;;5062236;28;20140;-69
2023/08/10 06:47:18;;;;;;;3.53;1.90;;;28.60;48.80;;;;;;5058941;28;20059;-69
2023/08/10 06:49:44;;;;;;;5.82;2.30;;;28.50;49.00;;;;;;5058424;28;20032;-72
2023/08/10 06:52:09;;;;;;;5.97;2.10;;;28.50;48.20;;;;;;5062975;28;20051;-71
2023/08/10 06:54:35;;;;;;;3.20;2.22;;;28.30;48.80;;;;;;5062346;28;20082;-72
2023/08/10 06:57:01;;;;;;;3.30;1.90;;;28.50;49.00;;;;;;5062518;28;20025;-71
2023/08/10 06:59:27;;;;;;;2.35;1.80;;;28.70;49.00;;;;;;5058320;28;20043;-72
2023/08/10 07:01:53;;;;;;;1.95;1.73;;;29.00;48.90;;;;;;5058365;28;20025;-71
2023/08/10 07:04:19;;;;;;;4.05;1.90;;;29.10;48.80;;;;;;5060181;28;20479;-72
2023/08/10 07:06:44;;;;;;;3.45;2.10;;;29.20;48.60;;;;;;5059133;28;20521;-69
2023/08/10 07:09:10;;;;;;;3.03;2.20;;;29.10;48.50;;;;;;5057987;28;20017;-71
2023/08/10 07:11:35;;;;;;;3.08;1.88;;;29.20;48.50;;;;;;5061491;28;20036;-72
2023/08/10 07:14:02;;;;;;;3.40;2.05;;;29.40;48.30;;;;;;5057340;28;20057;-71
2023/08/10 07:16:28;;;;;;;4.60;2.38;;;29.50;48.00;;;;;;5058682;28;20017;-70
2023/08/10 07:18:54;;;;;;;4.60;2.28;;;29.40;47.80;;;;;;5056373;28;20074;-71
2023/08/10 07:21:20;;;;;;;3.28;2.28;;;29.60;47.50;;;;;;5057737;28;20053;-71
2023/08/10 07:23:46;;;;;;;3.35;2.28;;;29.50;47.30;;;;;;5054035;28;20070;-70
2023/08/10 07:26:12;;;;;;;3.95;2.10;;;29.70;47.40;;;;;;5054514;28;20025;-71
2023/08/10 07:28:37;;;;;;;3.92;2.45;;;30.00;47.20;;;;;;5055043;28;20028;-70
2023/08/10 07:31:03;;;;;;;3.30;1.77;;;29.90;46.50;;;;;;5061501;28;20020;-70
2023/08/10 07:33:29;;;;;;;3.10;1.60;;;30.00;45.80;;;;;;5058389;28;20028;-71
2023/08/10 07:35:54;;;;;;;3.00;1.70;;;30.10;45.20;;;;;;5060326;28;20437;-70
2023/08/10 07:38:21;;;;;;;1.80;1.30;;;30.10;44.90;;;;;;5058562;28;20025;-71
2023/08/10 07:40:47;;;;;;;3.42;1.42;;;30.00;45.10;;;;;;5055195;28;20162;-70
2023/08/10 07:43:13;;;;;;;2.20;1.33;;;29.80;45.30;;;;;;5057661;28;20029;-70
2023/08/10 07:45:39;;;;;;;2.17;1.35;;;29.50;45.40;;;;;;5056837;28;20036;-71
2023/08/10 07:48:05;;;;;;;2.03;0.98;;;29.20;45.70;;;;;;5056837;28;20024;-71
2023/08/10 07:50:31;;;;;;;1.42;1.08;;;29.00;46.00;;;;;;5053441;28;20029;-70
2023/08/10 07:52:57;;;;;;;1.65;1.20;;;28.70;46.40;;;;;;5064755;28;20510;-71
2023/08/10 07:55:23;;;;;;;1.50;1.10;;;28.20;46.50;;;;;;5065713;28;20106;-71
2023/08/10 07:57:49;;;;;;;2.45;1.30;;;27.80;47.20;;;;;;5056792;28;20500;-70
2023/08/10 08:00:15;;;;;;;2.63;1.20;;;27.30;47.50;;;;;;5057596;28;20399;-70
2023/08/10 08:02:41;;;;;;;2.97;1.13;;;26.90;48.00;;;;;;5049260;28;20021;-70
2023/08/10 08:05:07;;;;;;;2.40;1.52;;;26.60;48.50;;;;;;5050668;28;20021;-70
2023/08/10 08:07:33;;;;;;;2.53;1.20;;;26.00;48.80;;;;;;5051873;28;20112;-70
2023/08/10 08:09:59;;;;;;;2.78;1.10;;;25.60;49.90;;;;;;5056738;28;20111;-70
2023/08/10 08:12:26;;;;;;;1.67;1.40;;;25.40;50.00;;;;;;5053956;28;20522;-70
2023/08/10 08:14:52;;;;;;;3.25;1.35;;;25.10;50.20;;;;;;5061742;28;20070;-70
2023/08/10 08:17:18;;;;;;;3.33;1.20;;;24.90;49.70;;;;;;5055616;28;20020;-70
2023/08/10 08:19:44;;;;;;;3.20;1.30;;;24.60;50.30;;;;;;5058963;28;20529;-70
2023/08/10 08:22:10;;;;;;;2.65;1.00;;;24.30;50.20;;;;;;5059640;28;20111;-70
2023/08/10 08:24:36;;;;;;;3.00;1.30;;;24.00;50.40;;;;;;5061043;28;20128;-70
2023/08/10 08:27:01;;;;;;;3.38;1.20;;;24.00;50.50;;;;;;5056605;28;20029;-69
2023/08/10 08:29:27;;;;;;;2.70;1.33;;;24.00;51.00;;;;;;5061243;28;20032;-70
2023/08/10 08:31:53;;;;;;;3.95;1.00;;;24.10;50.50;;;;;;5056565;28;20028;-70
2023/08/10 08:34:18;;;;;;;1.25;1.05;;;24.00;50.60;;;;;;5058120;28;20033;-70
2023/08/10 08:36:44;;;;;;;1.98;1.10;;;24.10;50.80;;;;;;5063124;28;20043;-70
2023/08/10 08:39:10;;;;;;;1.40;1.15;;;24.20;50.90;;;;;;5061019;28;20024;-70
2023/08/10 08:41:37;;;;;;;1.95;1.10;;;24.20;51.10;;;;;;5057988;28;20071;-70
2023/08/10 08:44:08;;;;;;;1.65;1.02;;;24.10;50.60;;;;;;5057969;28;20562;-70
2023/08/10 08:46:37;;;;;;;2.25;1.10;;;24.10;50.90;;;;;;5057296;28;20039;-70
2023/08/10 08:49:04;;;;;;;4.95;1.30;;;24.10;50.30;;;;;;5057986;28;20333;-70
2023/08/10 08:51:30;;;;;;;1.95;1.08;;;24.00;50.50;;;;;;5059070;28;20032;-69
2023/08/10 08:54:00;;;;;;;1.48;1.00;;;24.20;50.90;;;;;;5058377;28;20051;-70
2023/08/10 08:56:26;;;;;;;1.75;1.25;;;24.30;51.00;;;;;;5061464;28;20044;-69
2023/08/10 08:58:52;;;;;;;2.50;1.20;;;24.20;50.30;;;;;;5063698;28;20476;-70
2023/08/10 09:01:19;;;;;;;2.05;1.20;;;24.30;50.40;;;;;;5069653;28;20036;-70
2023/08/10 09:03:45;;;;;;;2.40;1.00;;;24.30;50.30;;;;;;5062558;28;20027;-70
2023/08/10 09:06:11;;;;;;;1.35;0.90;;;24.30;50.60;;;;;;5062294;28;20020;-70
2023/08/10 09:08:38;;;;;;;2.58;1.00;;;24.50;50.40;;;;;;5058930;28;20032;-70
2023/08/10 09:11:05;;;;;;;2.33;1.10;;;24.50;50.20;;;;;;5059748;28;20387;-69
2023/08/10 09:13:30;;;;;;;1.42;1.10;;;24.40;49.80;;;;;;5058956;28;20379;-70
2023/08/10 09:16:06;;;;;;;4.85;1.20;;;24.30;50.10;;;;;;5063032;28;20043;-69
2023/08/10 09:18:33;;;;;;;2.13;0.93;;;24.30;50.00;;;;;;5061582;28;20072;-69
2023/08/10 09:21:20;;;;;;;1.92;1.02;;;24.40;50.60;;;;;;5059442;28;20124;-70
2023/08/10 09:23:47;;;;;;;2.08;1.02;;;24.60;50.20;;;;;;5063337;28;21597;-71
2023/08/10 09:26:16;;;;;;;3.00;1.13;;;24.50;49.80;;;;;;5063469;28;20734;-70
2023/08/10 09:28:42;;;;;;;1.77;1.08;;;24.50;50.20;;;;;;5063282;28;20104;-70
2023/08/10 09:31:09;;;;;;;1.38;1.10;;;24.70;50.40;;;;;;5066490;28;20032;-70
2023/08/10 09:33:36;;;;;;;2.17;1.20;;;25.00;51.20;;;;;;5067035;28;20142;-70
2023/08/10 09:36:04;;;;;;;1.30;1.10;;;25.00;48.90;;;;;;5057035;28;20542;-70
2023/08/10 09:38:30;;;;;;;2.15;1.27;;;24.80;48.90;;;;;;5052189;28;20025;-70
2023/08/10 09:41:22;;;;;;;1.80;1.20;;;24.70;48.20;;;;;;5063598;28;20086;-70
2023/08/10 09:43:48;;;;;;;1.48;1.05;;;24.40;48.60;;;;;;5059823;28;20033;-70
2023/08/10 09:46:15;;;;;;;1.75;1.10;;;24.40;49.90;;;;;;5062089;28;20116;-69
2023/08/10 09:48:43;;;;;;;1.90;1.23;;;24.60;50.40;;;;;;5063418;28;20025;-70
2023/08/10 09:51:10;;;;;;;2.33;1.70;;;24.80;50.50;;;;;;5062275;28;20032;-70
2023/08/10 09:53:37;;;;;;;3.47;1.85;;;24.60;49.30;;;;;;5063057;28;20025;-70
2023/08/10 09:56:07;;;;;;;2.85;1.60;;;24.40;49.50;;;;;;5064586;28;20039;-70
2023/08/10 09:58:34;;;;;;;1.98;1.50;;;24.20;50.10;;;;;;5060721;28;20151;-70
2023/08/10 10:01:00;;;;;;;2.58;1.30;;;24.30;50.80;;;;;;5066848;28;20037;-70
2023/08/10 10:03:31;;;;;;;3.55;1.30;;;24.50;50.90;;;;;;5063866;28;20044;-70
2023/08/10 10:05:57;;;;;;;1.90;1.40;;;24.60;51.00;;;;;;5062083;28;20055;-69
2023/08/10 10:08:26;;;;;;;2.83;1.55;;;24.70;50.90;;;;;;5069875;28;20012;-70
2023/08/10 10:10:56;;;;;;;1.88;1.40;;;24.70;50.80;;;;;;5063690;28;20111;-70
2023/08/10 10:13:22;;;;;;;2.05;1.50;;;25.00;50.90;;;;;;5062391;28;20023;-69
2023/08/10 10:15:48;;;;;;;3.10;1.70;;;25.10;50.60;;;;;;5066786;28;20036;-70
2023/08/10 10:18:14;;;;;;;4.85;1.70;;;25.20;50.40;;;;;;5067444;28;20028;-70
2023/08/10 10:20:43;;;;;;;2.80;1.70;;;25.20;50.00;;;;;;5067264;28;20031;-70
2023/08/10 10:23:16;;;;;;;2.88;1.70;;;25.00;49.70;;;;;;5065247;28;20024;-70
2023/08/10 10:25:58;;;;;;;1.50;1.40;;;25.00;50.30;;;;;;5066932;28;20579;-71
2023/08/10 10:28:26;;;;;;;2.95;1.70;;;25.10;50.80;;;;;;5063874;28;20021;-71
2023/08/10 10:31:05;;;;;;;2.40;1.52;;;25.00;50.60;;;;;;5064294;28;20495;-70
2023/08/10 10:33:32;;;;;;;3.63;2.03;;;25.00;51.10;;;;;;5068101;28;20032;-70
2023/08/10 10:36:09;;;;;;;2.38;1.60;;;24.80;50.80;;;;;;5064517;28;20024;-70
2023/08/10 10:38:36;;;;;;;1.77;1.30;;;24.80;51.80;;;;;;5068459;28;20101;-69
2023/08/10 10:41:15;;;;;;;3.20;1.80;;;24.80;51.80;;;;;;5065585;28;20027;-70
2023/08/10 10:43:44;;;;;;;2.38;1.67;;;24.80;51.70;;;;;;5067339;28;20017;-71
2023/08/10 10:46:32;;;;;;;2.58;1.83;;;24.60;51.70;;;;;;5063017;28;20453;-71
2023/08/10 10:48:59;;;;;;;2.15;1.55;;;24.60;51.90;;;;;;5061247;28;20043;-70
2023/08/10 10:51:26;;;;;;;2.55;1.80;;;24.60;52.20;;;;;;5064175;28;20021;-71
2023/08/10 10:53:55;;;;;;;2.00;1.55;;;24.50;52.20;;;;;;5061644;28;20035;-70
2023/08/10 10:56:22;;;;;;;3.03;1.70;;;24.40;52.50;;;;;;5066899;28;20025;-70
2023/08/10 10:58:48;;;;;;;3.20;1.50;;;24.40;52.50;;;;;;5066845;28;20043;-70
2023/08/10 11:01:19;;;;;;;2.15;1.70;;;24.30;52.30;;;;;;5063645;28;20052;-70
2023/08/10 11:03:54;;;;;;;3.17;1.35;;;24.30;52.00;;;;;;5067195;28;20025;-70
2023/08/10 11:06:20;;;;;;;2.20;1.42;;;24.30;52.10;;;;;;5063296;28;20483;-70
2023/08/10 11:08:54;;;;;;;1.67;1.30;;;24.40;52.10;;;;;;5067920;28;20040;-70
2023/08/10 11:11:23;;;;;;;1.50;1.40;;;24.40;51.90;;;;;;5065898;28;20025;-70
2023/08/10 11:13:51;;;;;;;1.50;1.30;;;24.50;51.80;;;;;;5065042;28;20097;-70
2023/08/10 11:16:17;;;;;;;2.03;1.10;;;24.70;51.70;;;;;;5060786;28;20661;-70
2023/08/10 11:18:45;;;;;;;1.50;1.40;;;24.90;51.60;;;;;;5064975;28;20028;-70
2023/08/10 11:21:12;;;;;;;2.13;1.55;;;25.00;51.30;;;;;;5065481;28;20502;-70
2023/08/10 11:23:41;;;;;;;2.08;1.45;;;25.10;51.00;;;;;;5065502;28;20544;-70
2023/08/10 11:26:08;;;;;;;2.55;1.35;;;25.10;50.90;;;;;;5067235;28;20025;-70
2023/08/10 11:28:34;;;;;;;2.53;1.52;;;25.20;51.40;;;;;;5065986;28;20035;-70
2023/08/10 11:31:04;;;;;;;2.17;1.50;;;25.30;51.50;;;;;;5065248;28;20024;-70
2023/08/10 11:33:30;;;;;;;2.03;1.30;;;25.40;51.00;;;;;;5063733;28;20035;-70
2023/08/10 11:35:56;;;;;;;1.95;1.45;;;25.30;50.90;;;;;;5060879;28;20504;-70
2023/08/10 11:38:23;;;;;;;2.03;1.35;;;25.40;51.00;;;;;;5065552;28;20108;-71
2023/08/10 11:40:48;;;;;;;2.30;1.35;;;25.30;50.60;;;;;;5061548;28;20615;-70
2023/08/10 11:43:15;;;;;;;2.30;1.40;;;25.30;50.50;;;;;;5062340;28;20048;-70
2023/08/10 11:45:42;;;;;;;2.03;1.42;;;25.50;50.60;;;;;;5065468;28;20028;-70
2023/08/10 11:48:10;;;;;;;3.20;1.50;;;25.60;50.30;;;;;;5063621;28;20095;-70
2023/08/10 11:50:38;;;;;;;2.97;1.42;;;25.80;50.40;;;;;;5066168;28;20088;-70
2023/08/10 11:53:11;;;;;;;4.07;1.60;;;25.90;49.80;;;;;;5060722;28;20071;-70
2023/08/10 11:55:43;;;;;;;4.55;1.77;;;26.00;50.00;;;;;;5063521;28;20093;-70
2023/08/10 11:58:10;;;;;;;3.28;1.50;;;26.00;49.90;;;;;;5063477;28;20035;-70
2023/08/10 12:00:38;;;;;;;3.22;1.67;;;26.20;49.90;;;;;;5058528;28;20029;-70
2023/08/10 12:03:06;;;;;;;1.77;1.50;;;26.30;50.10;;;;;;5061203;28;20032;-70
2023/08/10 12:05:40;;;;;;;3.17;2.17;;;26.50;50.20;;;;;;5065266;28;20031;-70
2023/08/10 12:08:17;;;;;;;4.43;1.65;;;26.70;49.20;;;;;;5064275;28;20031;-70
2023/08/10 12:10:44;;;;;;;2.17;1.55;;;26.60;48.90;;;;;;5062626;28;20039;-71
2023/08/10 12:13:14;;;;;;;2.70;1.58;;;26.60;48.70;;;;;;5060865;28;20450;-71
2023/08/10 12:15:50;;;;;;;2.00;1.30;;;26.60;48.80;;;;;;5061407;28;20036;-71
2023/08/10 12:18:21;;;;;;;1.50;1.30;;;26.60;49.20;;;;;;5060485;28;20025;-71
2023/08/10 12:20:48;;;;;;;2.55;1.58;;;26.60;49.30;;;;;;5057616;28;20043;-71
2023/08/10 12:23:15;;;;;;;2.35;1.85;;;26.70;49.20;;;;;;5057678;28;20013;-71
2023/08/10 12:25:46;;;;;;;4.00;1.80;;;26.70;49.00;;;;;;5061012;28;20021;-71
2023/08/10 12:28:12;;;;;;;2.75;1.55;;;26.70;48.70;;;;;;5068430;28;20032;-71
2023/08/10 12:30:38;;;;;;;1.85;1.40;;;26.90;48.90;;;;;;5067773;28;20091;-71
2023/08/10 12:33:06;;;;;;;2.97;1.60;;;27.10;49.00;;;;;;5063901;28;20455;-71
2023/08/10 12:35:32;;;;;;;2.63;1.38;;;27.20;48.50;;;;;;5065722;28;20028;-71
2023/08/10 12:37:58;;;;;;;2.30;1.58;;;27.10;48.30;;;;;;5067659;28;20040;-71
2023/08/10 12:40:23;;;;;;;3.20;1.30;;;27.10;48.40;;;;;;5064066;28;20107;-71
2023/08/10 12:42:50;;;;;;;2.58;1.45;;;27.20;48.50;;;;;;5066805;28;20418;-71
2023/08/10 12:45:17;;;;;;;3.22;1.45;;;27.30;48.50;;;;;;5067132;28;20025;-71
2023/08/10 12:47:43;;;;;;;2.63;1.33;;;27.50;48.50;;;;;;5068656;28;20025;-71